sensor_id;sensor_type;location;lat;lon;timestamp;P1;durP1;ratioP1;P2;durP2;ratioP2
65271;SDS011;51868;48.812;8.198;2022-12-22T00:00:23;3.17;;;1.30;;
65271;SDS011;51868;48.812;8.198;2022-12-22T00:03:11;3.45;;;1.50;;
65271;SDS011;51868;48.812;8.198;2022-12-22T00:05:57;2.67;;;1.30;;
65271;SDS011;51868;48.812;8.198;2022-12-22T00:08:44;3.85;;;1.58;;
65271;SDS011;51868;48.812;8.198;2022-12-22T00:11:31;3.53;;;1.60;;
65271;SDS011;51868;48.812;8.198;2022-12-22T00:14:18;2.47;;;1.30;;
65271;SDS011;51868;48.812;8.198;2022-12-22T00:17:04;2.75;;;1.52;;
65271;SDS011;51868;48.812;8.198;2022-12-22T00:19:59;2.60;;;1.40;;
65271;SDS011;51868;48.812;8.198;2022-12-22T00:22:44;3.03;;;1.48;;
65271;SDS011;51868;48.812;8.198;2022-12-22T00:25:31;1.80;;;1.35;;
65271;SDS011;51868;48.812;8.198;2022-12-22T00:28:19;2.85;;;1.30;;
65271;SDS011;51868;48.812;8.198;2022-12-22T00:31:04;2.75;;;1.45;;
65271;SDS011;51868;48.812;8.198;2022-12-22T00:33:49;2.80;;;1.52;;
65271;SDS011;51868;48.812;8.198;2022-12-22T00:36:35;2.00;;;1.40;;
65271;SDS011;51868;48.812;8.198;2022-12-22T00:39:20;2.55;;;1.50;;
65271;SDS011;51868;48.812;8.198;2022-12-22T00:42:07;2.88;;;1.70;;
65271;SDS011;51868;48.812;8.198;2022-12-22T00:44:52;2.45;;;1.55;;
65271;SDS011;51868;48.812;8.198;2022-12-22T00:47:37;3.38;;;1.73;;
65271;SDS011;51868;48.812;8.198;2022-12-22T00:50:26;4.82;;;1.88;;
65271;SDS011;51868;48.812;8.198;2022-12-22T00:53:15;1.42;;;1.20;;
65271;SDS011;51868;48.812;8.198;2022-12-22T00:56:01;3.55;;;1.50;;
65271;SDS011;51868;48.812;8.198;2022-12-22T00:58:48;9.02;;;1.60;;
65271;SDS011;51868;48.812;8.198;2022-12-22T01:01:35;2.35;;;1.30;;
65271;SDS011;51868;48.812;8.198;2022-12-22T01:04:20;2.42;;;1.30;;
65271;SDS011;51868;48.812;8.198;2022-12-22T01:07:07;3.45;;;1.40;;
65271;SDS011;51868;48.812;8.198;2022-12-22T01:09:54;2.42;;;1.55;;
65271;SDS011;51868;48.812;8.198;2022-12-22T01:12:40;3.65;;;2.03;;
65271;SDS011;51868;48.812;8.198;2022-12-22T01:15:27;4.30;;;1.80;;
65271;SDS011;51868;48.812;8.198;2022-12-22T01:18:14;3.42;;;1.75;;
65271;SDS011;51868;48.812;8.198;2022-12-22T01:21:00;5.53;;;2.25;;
65271;SDS011;51868;48.812;8.198;2022-12-22T01:23:47;3.40;;;1.33;;
65271;SDS011;51868;48.812;8.198;2022-12-22T01:26:32;2.03;;;1.30;;
65271;SDS011;51868;48.812;8.198;2022-12-22T01:29:18;5.05;;;1.20;;
65271;SDS011;51868;48.812;8.198;2022-12-22T01:32:05;2.17;;;1.20;;
65271;SDS011;51868;48.812;8.198;2022-12-22T01:34:52;4.55;;;1.30;;
65271;SDS011;51868;48.812;8.198;2022-12-22T01:37:38;2.55;;;1.17;;
65271;SDS011;51868;48.812;8.198;2022-12-22T01:40:23;1.67;;;1.10;;
65271;SDS011;51868;48.812;8.198;2022-12-22T01:43:14;1.60;;;1.10;;
65271;SDS011;51868;48.812;8.198;2022-12-22T01:46:19;3.58;;;1.30;;
65271;SDS011;51868;48.812;8.198;2022-12-22T01:49:08;1.67;;;0.85;;
65271;SDS011;51868;48.812;8.198;2022-12-22T01:51:55;1.60;;;1.00;;
65271;SDS011;51868;48.812;8.198;2022-12-22T01:54:41;2.25;;;1.02;;
65271;SDS011;51868;48.812;8.198;2022-12-22T01:57:27;2.30;;;1.17;;
65271;SDS011;51868;48.812;8.198;2022-12-22T02:00:14;1.35;;;1.10;;
65271;SDS011;51868;48.812;8.198;2022-12-22T02:03:00;1.73;;;1.10;;
65271;SDS011;51868;48.812;8.198;2022-12-22T02:05:50;2.08;;;1.13;;
65271;SDS011;51868;48.812;8.198;2022-12-22T02:08:43;1.65;;;1.00;;
65271;SDS011;51868;48.812;8.198;2022-12-22T02:11:38;2.15;;;1.00;;
65271;SDS011;51868;48.812;8.198;2022-12-22T02:14:34;5.78;;;1.55;;
65271;SDS011;51868;48.812;8.198;2022-12-22T02:17:28;1.15;;;0.90;;
65271;SDS011;51868;48.812;8.198;2022-12-22T02:20:28;2.50;;;1.23;;
65271;SDS011;51868;48.812;8.198;2022-12-22T02:23:24;1.50;;;0.90;;
65271;SDS011;51868;48.812;8.198;2022-12-22T02:26:29;3.75;;;1.13;;
65271;SDS011;51868;48.812;8.198;2022-12-22T02:29:18;3.58;;;1.55;;
65271;SDS011;51868;48.812;8.198;2022-12-22T02:32:09;2.42;;;0.82;;
65271;SDS011;51868;48.812;8.198;2022-12-22T02:34:54;3.30;;;1.00;;
65271;SDS011;51868;48.812;8.198;2022-12-22T02:37:41;1.08;;;0.80;;
65271;SDS011;51868;48.812;8.198;2022-12-22T02:40:34;1.00;;;0.90;;
65271;SDS011;51868;48.812;8.198;2022-12-22T02:43:34;2.30;;;1.02;;
65271;SDS011;51868;48.812;8.198;2022-12-22T02:46:30;1.50;;;1.00;;
65271;SDS011;51868;48.812;8.198;2022-12-22T02:49:20;3.00;;;1.02;;
65271;SDS011;51868;48.812;8.198;2022-12-22T02:52:09;2.10;;;1.10;;
65271;SDS011;51868;48.812;8.198;2022-12-22T02:54:59;3.97;;;1.27;;
65271;SDS011;51868;48.812;8.198;2022-12-22T02:57:45;1.88;;;0.90;;
65271;SDS011;51868;48.812;8.198;2022-12-22T03:00:31;3.08;;;0.98;;
65271;SDS011;51868;48.812;8.198;2022-12-22T03:03:17;3.05;;;1.10;;
65271;SDS011;51868;48.812;8.198;2022-12-22T03:06:03;3.70;;;0.88;;
65271;SDS011;51868;48.812;8.198;2022-12-22T03:08:48;2.00;;;0.80;;
65271;SDS011;51868;48.812;8.198;2022-12-22T03:11:33;1.65;;;0.88;;
65271;SDS011;51868;48.812;8.198;2022-12-22T03:14:19;3.15;;;0.82;;
65271;SDS011;51868;48.812;8.198;2022-12-22T03:17:05;2.78;;;0.82;;
65271;SDS011;51868;48.812;8.198;2022-12-22T03:19:51;2.50;;;0.85;;
65271;SDS011;51868;48.812;8.198;2022-12-22T03:22:36;2.55;;;0.90;;
65271;SDS011;51868;48.812;8.198;2022-12-22T03:25:22;0.98;;;0.70;;
65271;SDS011;51868;48.812;8.198;2022-12-22T03:28:07;2.17;;;1.05;;
65271;SDS011;51868;48.812;8.198;2022-12-22T03:30:36;1.90;;;0.80;;
65271;SDS011;51868;48.812;8.198;2022-12-22T03:33:06;2.83;;;1.23;;
65271;SDS011;51868;48.812;8.198;2022-12-22T03:35:34;4.15;;;1.52;;
65271;SDS011;51868;48.812;8.198;2022-12-22T03:38:01;1.63;;;1.00;;
65271;SDS011;51868;48.812;8.198;2022-12-22T03:40:29;4.05;;;1.02;;
65271;SDS011;51868;48.812;8.198;2022-12-22T03:42:57;2.03;;;0.93;;
65271;SDS011;51868;48.812;8.198;2022-12-22T03:45:42;2.67;;;1.10;;
65271;SDS011;51868;48.812;8.198;2022-12-22T03:48:29;3.92;;;1.17;;
65271;SDS011;51868;48.812;8.198;2022-12-22T03:50:57;1.95;;;0.90;;
65271;SDS011;51868;48.812;8.198;2022-12-22T03:53:24;2.60;;;1.20;;
65271;SDS011;51868;48.812;8.198;2022-12-22T03:55:52;1.48;;;0.82;;
65271;SDS011;51868;48.812;8.198;2022-12-22T03:58:20;4.25;;;0.90;;
65271;SDS011;51868;48.812;8.198;2022-12-22T04:00:47;3.65;;;1.35;;
65271;SDS011;51868;48.812;8.198;2022-12-22T04:03:15;5.32;;;1.20;;
65271;SDS011;51868;48.812;8.198;2022-12-22T04:05:45;1.15;;;1.00;;
65271;SDS011;51868;48.812;8.198;2022-12-22T04:08:13;5.78;;;2.10;;
65271;SDS011;51868;48.812;8.198;2022-12-22T04:10:40;4.78;;;1.10;;
65271;SDS011;51868;48.812;8.198;2022-12-22T04:13:26;7.45;;;1.90;;
65271;SDS011;51868;48.812;8.198;2022-12-22T04:15:53;3.45;;;1.05;;
65271;SDS011;51868;48.812;8.198;2022-12-22T04:18:21;3.65;;;1.00;;
65271;SDS011;51868;48.812;8.198;2022-12-22T04:20:50;3.63;;;0.90;;
65271;SDS011;51868;48.812;8.198;2022-12-22T04:23:18;3.78;;;1.83;;
65271;SDS011;51868;48.812;8.198;2022-12-22T04:25:45;2.58;;;1.13;;
65271;SDS011;51868;48.812;8.198;2022-12-22T04:28:13;4.32;;;1.42;;
65271;SDS011;51868;48.812;8.198;2022-12-22T04:30:41;3.65;;;1.52;;
65271;SDS011;51868;48.812;8.198;2022-12-22T04:33:08;2.47;;;1.00;;
65271;SDS011;51868;48.812;8.198;2022-12-22T04:35:36;2.75;;;1.30;;
65271;SDS011;51868;48.812;8.198;2022-12-22T04:38:05;2.90;;;1.27;;
65271;SDS011;51868;48.812;8.198;2022-12-22T04:40:33;4.70;;;1.20;;
65271;SDS011;51868;48.812;8.198;2022-12-22T04:43:00;5.28;;;1.23;;
65271;SDS011;51868;48.812;8.198;2022-12-22T04:45:28;3.03;;;0.93;;
65271;SDS011;51868;48.812;8.198;2022-12-22T04:47:56;4.03;;;0.90;;
65271;SDS011;51868;48.812;8.198;2022-12-22T04:50:24;4.57;;;1.30;;
65271;SDS011;51868;48.812;8.198;2022-12-22T04:52:51;4.65;;;1.50;;
65271;SDS011;51868;48.812;8.198;2022-12-22T04:55:20;2.63;;;1.10;;
65271;SDS011;51868;48.812;8.198;2022-12-22T04:57:48;3.47;;;1.65;;
65271;SDS011;51868;48.812;8.198;2022-12-22T05:00:16;3.08;;;1.00;;
65271;SDS011;51868;48.812;8.198;2022-12-22T05:02:44;3.08;;;0.90;;
65271;SDS011;51868;48.812;8.198;2022-12-22T05:05:12;4.15;;;1.17;;
65271;SDS011;51868;48.812;8.198;2022-12-22T05:07:41;5.25;;;1.15;;
65271;SDS011;51868;48.812;8.198;2022-12-22T05:10:09;6.03;;;1.10;;
65271;SDS011;51868;48.812;8.198;2022-12-22T05:12:39;6.35;;;1.40;;
65271;SDS011;51868;48.812;8.198;2022-12-22T05:15:22;4.57;;;1.27;;
65271;SDS011;51868;48.812;8.198;2022-12-22T05:17:51;2.72;;;0.82;;
65271;SDS011;51868;48.812;8.198;2022-12-22T05:20:19;6.03;;;1.77;;
65271;SDS011;51868;48.812;8.198;2022-12-22T05:22:47;6.05;;;1.50;;
65271;SDS011;51868;48.812;8.198;2022-12-22T05:25:15;7.65;;;1.30;;
65271;SDS011;51868;48.812;8.198;2022-12-22T05:27:45;2.45;;;1.40;;
65271;SDS011;51868;48.812;8.198;2022-12-22T05:30:14;5.20;;;1.40;;
65271;SDS011;51868;48.812;8.198;2022-12-22T05:32:42;5.93;;;1.17;;
65271;SDS011;51868;48.812;8.198;2022-12-22T05:35:10;4.50;;;1.50;;
65271;SDS011;51868;48.812;8.198;2022-12-22T05:37:38;6.10;;;1.33;;
65271;SDS011;51868;48.812;8.198;2022-12-22T05:40:06;3.55;;;1.20;;
65271;SDS011;51868;48.812;8.198;2022-12-22T05:42:35;4.10;;;1.33;;
65271;SDS011;51868;48.812;8.198;2022-12-22T05:45:05;5.40;;;1.20;;
65271;SDS011;51868;48.812;8.198;2022-12-22T05:47:35;12.68;;;1.42;;
65271;SDS011;51868;48.812;8.198;2022-12-22T05:50:03;5.72;;;1.40;;
65271;SDS011;51868;48.812;8.198;2022-12-22T05:52:32;6.53;;;1.48;;
65271;SDS011;51868;48.812;8.198;2022-12-22T05:55:00;5.43;;;1.60;;
65271;SDS011;51868;48.812;8.198;2022-12-22T05:57:27;5.07;;;1.50;;
65271;SDS011;51868;48.812;8.198;2022-12-22T05:59:55;5.53;;;2.38;;
65271;SDS011;51868;48.812;8.198;2022-12-22T06:02:24;8.48;;;2.20;;
65271;SDS011;51868;48.812;8.198;2022-12-22T06:04:52;5.00;;;1.42;;
65271;SDS011;51868;48.812;8.198;2022-12-22T06:07:20;4.57;;;1.58;;
65271;SDS011;51868;48.812;8.198;2022-12-22T06:09:48;5.32;;;1.67;;
65271;SDS011;51868;48.812;8.198;2022-12-22T06:12:15;8.85;;;1.95;;
65271;SDS011;51868;48.812;8.198;2022-12-22T06:14:45;7.63;;;1.70;;
65271;SDS011;51868;48.812;8.198;2022-12-22T06:17:20;6.20;;;1.48;;
65271;SDS011;51868;48.812;8.198;2022-12-22T06:19:49;6.22;;;1.52;;
65271;SDS011;51868;48.812;8.198;2022-12-22T06:22:17;5.30;;;1.20;;
65271;SDS011;51868;48.812;8.198;2022-12-22T06:24:45;3.83;;;1.25;;
65271;SDS011;51868;48.812;8.198;2022-12-22T06:27:12;4.15;;;1.40;;
65271;SDS011;51868;48.812;8.198;2022-12-22T06:29:40;4.18;;;1.50;;
65271;SDS011;51868;48.812;8.198;2022-12-22T06:32:08;6.15;;;1.40;;
65271;SDS011;51868;48.812;8.198;2022-12-22T06:34:35;6.97;;;1.55;;
65271;SDS011;51868;48.812;8.198;2022-12-22T06:37:04;4.05;;;1.45;;
65271;SDS011;51868;48.812;8.198;2022-12-22T06:39:32;5.20;;;1.40;;
65271;SDS011;51868;48.812;8.198;2022-12-22T06:42:00;4.53;;;1.23;;
65271;SDS011;51868;48.812;8.198;2022-12-22T06:44:45;4.93;;;1.48;;
65271;SDS011;51868;48.812;8.198;2022-12-22T06:47:15;3.50;;;1.45;;
65271;SDS011;51868;48.812;8.198;2022-12-22T06:49:43;5.50;;;1.63;;
65271;SDS011;51868;48.812;8.198;2022-12-22T06:52:12;7.53;;;2.10;;
65271;SDS011;51868;48.812;8.198;2022-12-22T06:54:40;10.02;;;1.63;;
65271;SDS011;51868;48.812;8.198;2022-12-22T06:57:08;3.85;;;1.30;;
65271;SDS011;51868;48.812;8.198;2022-12-22T06:59:36;7.05;;;1.92;;
65271;SDS011;51868;48.812;8.198;2022-12-22T07:02:03;4.65;;;1.85;;
65271;SDS011;51868;48.812;8.198;2022-12-22T07:04:31;10.63;;;2.22;;
65271;SDS011;51868;48.812;8.198;2022-12-22T07:06:59;7.53;;;1.92;;
65271;SDS011;51868;48.812;8.198;2022-12-22T07:09:30;6.10;;;1.15;;
65271;SDS011;51868;48.812;8.198;2022-12-22T07:11:57;5.88;;;1.63;;
65271;SDS011;51868;48.812;8.198;2022-12-22T07:14:25;6.97;;;1.52;;
65271;SDS011;51868;48.812;8.198;2022-12-22T07:16:53;7.65;;;1.75;;
65271;SDS011;51868;48.812;8.198;2022-12-22T07:19:21;9.10;;;1.60;;
65271;SDS011;51868;48.812;8.198;2022-12-22T07:21:49;6.78;;;1.30;;
65271;SDS011;51868;48.812;8.198;2022-12-22T07:24:16;5.97;;;1.15;;
65271;SDS011;51868;48.812;8.198;2022-12-22T07:26:50;9.90;;;1.80;;
65271;SDS011;51868;48.812;8.198;2022-12-22T07:29:18;3.78;;;1.50;;
65271;SDS011;51868;48.812;8.198;2022-12-22T07:31:46;7.13;;;1.77;;
65271;SDS011;51868;48.812;8.198;2022-12-22T07:34:14;5.35;;;2.00;;
65271;SDS011;51868;48.812;8.198;2022-12-22T07:36:42;6.40;;;1.50;;
65271;SDS011;51868;48.812;8.198;2022-12-22T07:39:10;4.53;;;1.27;;
65271;SDS011;51868;48.812;8.198;2022-12-22T07:41:38;8.30;;;1.77;;
65271;SDS011;51868;48.812;8.198;2022-12-22T07:44:27;5.53;;;1.40;;
65271;SDS011;51868;48.812;8.198;2022-12-22T07:46:55;7.38;;;1.90;;
65271;SDS011;51868;48.812;8.198;2022-12-22T07:49:26;8.27;;;1.63;;
65271;SDS011;51868;48.812;8.198;2022-12-22T07:52:14;4.38;;;1.60;;
65271;SDS011;51868;48.812;8.198;2022-12-22T07:54:42;6.32;;;2.00;;
65271;SDS011;51868;48.812;8.198;2022-12-22T07:57:10;7.57;;;1.55;;
65271;SDS011;51868;48.812;8.198;2022-12-22T07:59:39;6.28;;;1.67;;
65271;SDS011;51868;48.812;8.198;2022-12-22T08:02:09;8.32;;;1.83;;
65271;SDS011;51868;48.812;8.198;2022-12-22T08:04:38;8.07;;;2.45;;
65271;SDS011;51868;48.812;8.198;2022-12-22T08:07:06;6.20;;;1.98;;
65271;SDS011;51868;48.812;8.198;2022-12-22T08:09:34;10.25;;;2.38;;
65271;SDS011;51868;48.812;8.198;2022-12-22T08:12:04;10.82;;;2.70;;
65271;SDS011;51868;48.812;8.198;2022-12-22T08:14:32;10.75;;;2.45;;
65271;SDS011;51868;48.812;8.198;2022-12-22T08:17:01;7.65;;;2.50;;
65271;SDS011;51868;48.812;8.198;2022-12-22T08:19:30;3.60;;;1.40;;
65271;SDS011;51868;48.812;8.198;2022-12-22T08:21:59;7.45;;;1.60;;
65271;SDS011;51868;48.812;8.198;2022-12-22T08:24:30;6.65;;;1.75;;
65271;SDS011;51868;48.812;8.198;2022-12-22T08:26:58;6.18;;;1.48;;
65271;SDS011;51868;48.812;8.198;2022-12-22T08:29:30;8.02;;;1.83;;
65271;SDS011;51868;48.812;8.198;2022-12-22T08:32:03;7.15;;;1.80;;
65271;SDS011;51868;48.812;8.198;2022-12-22T08:34:31;15.50;;;3.50;;
65271;SDS011;51868;48.812;8.198;2022-12-22T08:36:59;8.27;;;2.22;;
65271;SDS011;51868;48.812;8.198;2022-12-22T08:39:30;9.68;;;1.60;;
65271;SDS011;51868;48.812;8.198;2022-12-22T08:42:02;10.55;;;1.90;;
65271;SDS011;51868;48.812;8.198;2022-12-22T08:44:31;9.68;;;2.28;;
65271;SDS011;51868;48.812;8.198;2022-12-22T08:46:59;10.38;;;2.85;;
65271;SDS011;51868;48.812;8.198;2022-12-22T08:49:29;9.48;;;1.90;;
65271;SDS011;51868;48.812;8.198;2022-12-22T08:51:58;9.77;;;1.50;;
65271;SDS011;51868;48.812;8.198;2022-12-22T08:54:29;10.57;;;2.25;;
65271;SDS011;51868;48.812;8.198;2022-12-22T08:59:28;11.65;;;2.80;;
65271;SDS011;51868;48.812;8.198;2022-12-22T09:01:56;8.63;;;1.70;;
65271;SDS011;51868;48.812;8.198;2022-12-22T09:04:32;5.10;;;0.98;;
65271;SDS011;51868;48.812;8.198;2022-12-22T09:09:33;16.10;;;1.98;;
65271;SDS011;51868;48.812;8.198;2022-12-22T09:12:02;6.22;;;1.88;;
65271;SDS011;51868;48.812;8.198;2022-12-22T09:14:30;12.73;;;1.90;;
65271;SDS011;51868;48.812;8.198;2022-12-22T09:16:59;12.50;;;2.30;;
65271;SDS011;51868;48.812;8.198;2022-12-22T09:19:26;8.10;;;1.90;;
65271;SDS011;51868;48.812;8.198;2022-12-22T09:21:56;9.52;;;1.80;;
65271;SDS011;51868;48.812;8.198;2022-12-22T09:24:23;8.88;;;1.80;;
65271;SDS011;51868;48.812;8.198;2022-12-22T09:26:51;10.38;;;1.83;;
65271;SDS011;51868;48.812;8.198;2022-12-22T09:29:19;10.10;;;2.42;;
65271;SDS011;51868;48.812;8.198;2022-12-22T09:31:50;9.82;;;2.03;;
65271;SDS011;51868;48.812;8.198;2022-12-22T09:34:18;11.50;;;2.22;;
65271;SDS011;51868;48.812;8.198;2022-12-22T09:36:46;7.60;;;2.40;;
65271;SDS011;51868;48.812;8.198;2022-12-22T09:39:25;15.82;;;2.85;;
65271;SDS011;51868;48.812;8.198;2022-12-22T09:45:25;9.05;;;2.28;;
65271;SDS011;51868;48.812;8.198;2022-12-22T09:48:22;10.73;;;2.75;;
65271;SDS011;51868;48.812;8.198;2022-12-22T09:50:51;6.32;;;2.45;;
65271;SDS011;51868;48.812;8.198;2022-12-22T09:53:20;12.90;;;2.88;;
65271;SDS011;51868;48.812;8.198;2022-12-22T09:55:51;13.25;;;3.13;;
65271;SDS011;51868;48.812;8.198;2022-12-22T09:58:20;18.88;;;4.72;;
65271;SDS011;51868;48.812;8.198;2022-12-22T10:00:57;9.98;;;2.63;;
65271;SDS011;51868;48.812;8.198;2022-12-22T10:03:32;13.15;;;3.13;;
65271;SDS011;51868;48.812;8.198;2022-12-22T10:06:09;9.95;;;2.60;;
65271;SDS011;51868;48.812;8.198;2022-12-22T10:08:42;12.38;;;3.03;;
65271;SDS011;51868;48.812;8.198;2022-12-22T10:11:13;9.93;;;2.25;;
65271;SDS011;51868;48.812;8.198;2022-12-22T10:13:43;11.95;;;2.72;;
65271;SDS011;51868;48.812;8.198;2022-12-22T10:16:15;11.57;;;2.00;;
65271;SDS011;51868;48.812;8.198;2022-12-22T10:18:53;14.30;;;2.33;;
65271;SDS011;51868;48.812;8.198;2022-12-22T10:21:22;12.10;;;2.10;;
65271;SDS011;51868;48.812;8.198;2022-12-22T10:23:51;9.52;;;2.25;;
65271;SDS011;51868;48.812;8.198;2022-12-22T10:26:22;9.07;;;1.90;;
65271;SDS011;51868;48.812;8.198;2022-12-22T10:28:57;9.95;;;1.70;;
65271;SDS011;51868;48.812;8.198;2022-12-22T10:31:27;9.35;;;2.10;;
65271;SDS011;51868;48.812;8.198;2022-12-22T10:34:12;10.05;;;2.38;;
65271;SDS011;51868;48.812;8.198;2022-12-22T10:36:51;8.13;;;1.70;;
65271;SDS011;51868;48.812;8.198;2022-12-22T10:39:34;9.45;;;2.63;;
65271;SDS011;51868;48.812;8.198;2022-12-22T10:42:10;5.47;;;1.85;;
65271;SDS011;51868;48.812;8.198;2022-12-22T10:44:47;5.75;;;1.75;;
65271;SDS011;51868;48.812;8.198;2022-12-22T10:47:16;24.20;;;2.50;;
65271;SDS011;51868;48.812;8.198;2022-12-22T10:49:48;6.97;;;1.42;;
65271;SDS011;51868;48.812;8.198;2022-12-22T10:52:18;8.82;;;2.40;;
65271;SDS011;51868;48.812;8.198;2022-12-22T10:55:12;9.48;;;1.98;;
65271;SDS011;51868;48.812;8.198;2022-12-22T11:00:58;8.65;;;1.92;;
65271;SDS011;51868;48.812;8.198;2022-12-22T11:05:59;25.23;;;2.85;;
65271;SDS011;51868;48.812;8.198;2022-12-22T11:08:27;9.57;;;1.90;;
65271;SDS011;51868;48.812;8.198;2022-12-22T11:10:59;9.43;;;2.55;;
65271;SDS011;51868;48.812;8.198;2022-12-22T11:13:41;12.48;;;2.20;;
65271;SDS011;51868;48.812;8.198;2022-12-22T11:16:20;9.13;;;2.72;;
65271;SDS011;51868;48.812;8.198;2022-12-22T11:19:02;7.05;;;2.25;;
65271;SDS011;51868;48.812;8.198;2022-12-22T11:21:39;15.88;;;3.67;;
65271;SDS011;51868;48.812;8.198;2022-12-22T11:24:17;10.57;;;2.10;;
65271;SDS011;51868;48.812;8.198;2022-12-22T11:26:58;12.90;;;2.83;;
65271;SDS011;51868;48.812;8.198;2022-12-22T11:29:55;10.68;;;2.47;;
65271;SDS011;51868;48.812;8.198;2022-12-22T11:32:43;11.20;;;3.03;;
65271;SDS011;51868;48.812;8.198;2022-12-22T11:35:28;16.15;;;2.80;;
65271;SDS011;51868;48.812;8.198;2022-12-22T11:38:04;11.38;;;2.60;;
65271;SDS011;51868;48.812;8.198;2022-12-22T11:40:41;17.27;;;3.50;;
65271;SDS011;51868;48.812;8.198;2022-12-22T11:43:16;11.95;;;3.10;;
65271;SDS011;51868;48.812;8.198;2022-12-22T11:45:54;9.88;;;2.42;;
65271;SDS011;51868;48.812;8.198;2022-12-22T11:48:49;10.50;;;2.90;;
65271;SDS011;51868;48.812;8.198;2022-12-22T11:51:37;10.05;;;1.92;;
65271;SDS011;51868;48.812;8.198;2022-12-22T11:54:26;12.75;;;3.00;;
65271;SDS011;51868;48.812;8.198;2022-12-22T11:57:05;8.65;;;2.00;;
65271;SDS011;51868;48.812;8.198;2022-12-22T11:59:44;8.32;;;1.85;;
65271;SDS011;51868;48.812;8.198;2022-12-22T12:05:42;13.27;;;2.20;;
65271;SDS011;51868;48.812;8.198;2022-12-22T12:08:25;9.65;;;2.83;;
65271;SDS011;51868;48.812;8.198;2022-12-22T12:11:08;10.43;;;2.17;;
65271;SDS011;51868;48.812;8.198;2022-12-22T12:13:51;12.95;;;2.65;;
65271;SDS011;51868;48.812;8.198;2022-12-22T12:16:31;10.05;;;2.00;;
65271;SDS011;51868;48.812;8.198;2022-12-22T12:22:22;13.07;;;2.72;;
65271;SDS011;51868;48.812;8.198;2022-12-22T12:25:01;15.65;;;2.22;;
65271;SDS011;51868;48.812;8.198;2022-12-22T12:27:53;8.70;;;2.05;;
65271;SDS011;51868;48.812;8.198;2022-12-22T12:30:33;9.00;;;2.17;;
65271;SDS011;51868;48.812;8.198;2022-12-22T12:33:10;11.48;;;2.22;;
65271;SDS011;51868;48.812;8.198;2022-12-22T12:35:45;12.48;;;2.20;;
65271;SDS011;51868;48.812;8.198;2022-12-22T12:38:30;6.88;;;1.77;;
65271;SDS011;51868;48.812;8.198;2022-12-22T12:41:26;12.43;;;2.50;;
65271;SDS011;51868;48.812;8.198;2022-12-22T12:44:08;9.05;;;2.00;;
65271;SDS011;51868;48.812;8.198;2022-12-22T12:46:42;13.38;;;2.05;;
65271;SDS011;51868;48.812;8.198;2022-12-22T12:55:29;5.28;;;1.30;;
65271;SDS011;51868;48.812;8.198;2022-12-22T12:57:59;9.57;;;2.78;;
65271;SDS011;51868;48.812;8.198;2022-12-22T13:00:42;13.38;;;2.88;;
65271;SDS011;51868;48.812;8.198;2022-12-22T13:03:36;6.05;;;1.35;;
65271;SDS011;51868;48.812;8.198;2022-12-22T13:06:47;5.93;;;1.27;;
65271;SDS011;51868;48.812;8.198;2022-12-22T13:09:19;9.70;;;1.50;;
65271;SDS011;51868;48.812;8.198;2022-12-22T13:15:29;11.13;;;2.05;;
65271;SDS011;51868;48.812;8.198;2022-12-22T13:18:02;7.75;;;1.30;;
65271;SDS011;51868;48.812;8.198;2022-12-22T13:20:37;6.38;;;1.55;;
65271;SDS011;51868;48.812;8.198;2022-12-22T13:23:09;9.63;;;1.70;;
65271;SDS011;51868;48.812;8.198;2022-12-22T13:25:47;7.25;;;1.80;;
65271;SDS011;51868;48.812;8.198;2022-12-22T13:28:21;9.02;;;1.70;;
65271;SDS011;51868;48.812;8.198;2022-12-22T13:30:55;6.50;;;1.88;;
65271;SDS011;51868;48.812;8.198;2022-12-22T13:33:34;9.55;;;1.88;;
65271;SDS011;51868;48.812;8.198;2022-12-22T13:36:14;12.73;;;1.80;;
65271;SDS011;51868;48.812;8.198;2022-12-22T13:39:01;6.43;;;2.00;;
65271;SDS011;51868;48.812;8.198;2022-12-22T13:41:45;10.55;;;1.60;;
65271;SDS011;51868;48.812;8.198;2022-12-22T13:44:21;6.70;;;1.40;;
65271;SDS011;51868;48.812;8.198;2022-12-22T13:47:11;12.70;;;3.47;;
65271;SDS011;51868;48.812;8.198;2022-12-22T13:49:57;7.45;;;2.17;;
65271;SDS011;51868;48.812;8.198;2022-12-22T13:52:35;8.32;;;1.38;;
65271;SDS011;51868;48.812;8.198;2022-12-22T13:55:08;9.13;;;1.90;;
65271;SDS011;51868;48.812;8.198;2022-12-22T13:57:42;10.02;;;2.75;;
65271;SDS011;51868;48.812;8.198;2022-12-22T14:00:23;11.38;;;1.65;;
65271;SDS011;51868;48.812;8.198;2022-12-22T14:02:57;7.93;;;2.65;;
65271;SDS011;51868;48.812;8.198;2022-12-22T14:05:59;10.73;;;2.03;;
65271;SDS011;51868;48.812;8.198;2022-12-22T14:08:32;11.63;;;2.20;;
65271;SDS011;51868;48.812;8.198;2022-12-22T14:11:00;11.77;;;3.00;;
65271;SDS011;51868;48.812;8.198;2022-12-22T14:13:28;11.32;;;2.33;;
65271;SDS011;51868;48.812;8.198;2022-12-22T14:16:18;10.40;;;2.40;;
65271;SDS011;51868;48.812;8.198;2022-12-22T14:18:55;11.93;;;2.58;;
65271;SDS011;51868;48.812;8.198;2022-12-22T14:21:38;7.85;;;2.20;;
65271;SDS011;51868;48.812;8.198;2022-12-22T14:24:09;11.25;;;1.90;;
65271;SDS011;51868;48.812;8.198;2022-12-22T14:26:47;13.15;;;2.85;;
65271;SDS011;51868;48.812;8.198;2022-12-22T14:29:17;11.55;;;2.88;;
65271;SDS011;51868;48.812;8.198;2022-12-22T14:34:44;10.93;;;2.63;;
65271;SDS011;51868;48.812;8.198;2022-12-22T14:37:23;17.67;;;3.38;;
65271;SDS011;51868;48.812;8.198;2022-12-22T14:40:01;12.57;;;2.50;;
65271;SDS011;51868;48.812;8.198;2022-12-22T14:43:20;5.55;;;1.77;;
65271;SDS011;51868;48.812;8.198;2022-12-22T14:46:03;12.10;;;3.22;;
65271;SDS011;51868;48.812;8.198;2022-12-22T14:51:40;8.85;;;2.63;;
65271;SDS011;51868;48.812;8.198;2022-12-22T14:54:18;9.32;;;2.72;;
65271;SDS011;51868;48.812;8.198;2022-12-22T14:56:50;11.63;;;2.92;;
65271;SDS011;51868;48.812;8.198;2022-12-22T14:59:22;10.05;;;2.63;;
65271;SDS011;51868;48.812;8.198;2022-12-22T15:07:46;13.10;;;3.70;;
65271;SDS011;51868;48.812;8.198;2022-12-22T15:10:36;10.95;;;3.55;;
65271;SDS011;51868;48.812;8.198;2022-12-22T15:13:17;15.25;;;2.78;;
65271;SDS011;51868;48.812;8.198;2022-12-22T15:15:52;9.68;;;2.30;;
65271;SDS011;51868;48.812;8.198;2022-12-22T15:18:24;10.27;;;2.60;;
65271;SDS011;51868;48.812;8.198;2022-12-22T15:20:54;13.52;;;3.40;;
65271;SDS011;51868;48.812;8.198;2022-12-22T15:23:28;10.00;;;2.53;;
65271;SDS011;51868;48.812;8.198;2022-12-22T15:25:56;14.52;;;3.10;;
65271;SDS011;51868;48.812;8.198;2022-12-22T15:28:26;15.68;;;2.95;;
65271;SDS011;51868;48.812;8.198;2022-12-22T15:30:54;15.70;;;4.45;;
65271;SDS011;51868;48.812;8.198;2022-12-22T15:33:22;14.40;;;4.15;;
65271;SDS011;51868;48.812;8.198;2022-12-22T15:35:50;9.95;;;2.90;;
65271;SDS011;51868;48.812;8.198;2022-12-22T15:38:19;17.58;;;4.13;;
65271;SDS011;51868;48.812;8.198;2022-12-22T15:41:03;16.90;;;4.40;;
65271;SDS011;51868;48.812;8.198;2022-12-22T15:43:34;14.27;;;3.22;;
65271;SDS011;51868;48.812;8.198;2022-12-22T15:46:25;19.75;;;5.18;;
65271;SDS011;51868;48.812;8.198;2022-12-22T15:49:09;14.27;;;3.50;;
65271;SDS011;51868;48.812;8.198;2022-12-22T15:51:41;14.20;;;3.13;;
65271;SDS011;51868;48.812;8.198;2022-12-22T15:54:14;17.48;;;3.58;;
65271;SDS011;51868;48.812;8.198;2022-12-22T15:56:44;11.85;;;3.40;;
65271;SDS011;51868;48.812;8.198;2022-12-22T15:59:14;14.50;;;3.50;;
65271;SDS011;51868;48.812;8.198;2022-12-22T16:01:44;16.08;;;4.47;;
65271;SDS011;51868;48.812;8.198;2022-12-22T16:04:15;16.33;;;4.38;;
65271;SDS011;51868;48.812;8.198;2022-12-22T16:06:45;11.00;;;3.10;;
65271;SDS011;51868;48.812;8.198;2022-12-22T16:09:21;13.48;;;3.65;;
65271;SDS011;51868;48.812;8.198;2022-12-22T16:11:56;18.65;;;3.45;;
65271;SDS011;51868;48.812;8.198;2022-12-22T16:14:31;13.73;;;3.80;;
65271;SDS011;51868;48.812;8.198;2022-12-22T16:17:12;13.05;;;2.83;;
65271;SDS011;51868;48.812;8.198;2022-12-22T16:19:43;11.05;;;2.67;;